Hauptseite
METAR-TAF:

METAR-TAF

Flughäfen :

Flughafen Augsburg

Augsburg, Deutschland

Breite: 48-26N, Länge: 010-56E, Höhe: 461 m

Beobachtung

Neuester Wetterbericht von vor 28 Minuten, um 01:50 UTC
Wind 6 kt aus Ost/Südost, variierte zwischen Ost und Südwest
Temperatur 4°C
Luftfeuchtigkeit 100%
Luftdruck 1025 hPa
Sichtweite 10 km oder mehr

METAR: EDMA 230150Z AUTO 11006KT 100V230 9999 // ///////// 04/04 Q1025

Zeit: 04:18 (02:18 UTC)

Prognose

Neuester Wetterbericht von vor 9 Stunden und 18 Minuten, um 17:00 UTC
Gültige Prognose vom 22 um 18 UTC bis 23 um 03 UTC
Wind 12 kt aus West/Nordwest, Böen bis zu 25 kt
Sichtweite 10 km oder mehr
Aufgelockert bewölkt in der Höhe von 4500 ft
Übergehend zu
vom 22 um 18 UTC bis 22 um 20 UTC
Wind 5 kt aus West/Nordwest

TAF: EDMA 221700Z 2218/2303 30012G25KT 9999 SCT045 BECMG 2218/2220 30005KT

Wetterbeobachtungen und Prognosen von mehr als 4000 Flughäfen (METAR und TAF Bericht).

Die verfügbaren Stationen werden durch gelbe und rote Markierungen auf der Karte dargestellt.

Führen Sie die Maus auf sie, um den Namen der Station zu sehen.

Darauf klicken, um die Beobachtung von Wetterbeobachtungen und Prognosen zu sehen.

Um die Karte zu ändern : klicken Sie auf den grünen Tasten mit einem schwarzen Kreuz Zum Vergrößern, auf den grünen Button mit einem Gedankenstrich zu verkleinern, oder auf die grünen Pfeile für benachbarte Karten.


METAR-TAF: